Orto / Ocaso: 06:58 / 18:01 UTC (Datos para LEAX 20-02-2020)

[fuente: ADDS]

METAR:


LEMG 201530Z 12008KT 9999 FEW023 16/10 Q1023 NOSIG =
TAF LEMG 201100Z 2012/2112 12009KT 9999 FEW020 SCT030 TX18/2012Z TN10/2106Z BECMG 2019/2022 29005KT PROB30 TEMPO 2021/2103 BKN014 BECMG 2109/2112 13011KT LEGR 201530Z VRB01KT CAVOK 20/06 Q1021 =
TAF LEGR 201400Z 2015/2115 17007KT 9999 FEW050 TX21/2115Z TN03/2107Z LEZL 201530Z 09009KT 050V130 CAVOK 22/08 Q1021 NOSIG =
TAF LEZL 201400Z 2015/2115 07008KT 9999 FEW045 TX24/2115Z TN11/2107Z LEAM 201530Z 09012KT 060V130 9999 FEW030 18/09 Q1023 =
TAF LEAM 201400Z 2015/2115 08015KT 9999 FEW035 TX20/2114Z TN09/2107Z BECMG 2019/2022 01006KT BECMG 2109/2111 07020KT LEBA 201530Z 10004KT 060V140 CAVOK 20/06 Q1021 =
TAF LEBA 201400Z 2015/2024 VRB03KT CAVOK LEJR 201600Z 17005KT 110V280 CAVOK 21/11 Q1020 =
TAF LEJR 201100Z 2012/2112 15010KT 9999 FEW045 TX21/2015Z TN07/2106Z PROB30 TEMPO 2012/2016 VRB02KT BECMG 2020/2023 04005KT GEML 201530Z 07005KT 010V110 9999 SCT013 16/12 Q1022 =
TAF GEML 201400Z 2015/2115 09007KT 9999 SCT015 BKN020 TX17/2015Z TN15/2106Z TEMPO 2017/2115 SCT010 BKN014 LXGB 201550Z 08017KT 9999 BKN016 OVC030 16/12 Q1022 NOSIG RMK WHT WHT =
TAF LXGB 201340Z 2015/2023 09016G26KT 9999 FEW018 BKN025 520002 TEMPO 2015/2023 SCT018 BKN025 PROB30 TEMPO 2015/2023 SCT012 BECMG 2016/2019 09014KT 50////

TAFOR:


TAF LEMG 201100Z 2012/2112 12009KT 9999 FEW020 SCT030 TX18/2012Z TN10/2106Z BECMG 2019/2022 29005KT PROB30 TEMPO 2021/2103 BKN014 BECMG 2109/2112 13011KT =
TAF LEGR 201400Z 2015/2115 17007KT 9999 FEW050 TX21/2115Z TN03/2107Z =
TAF LEZL 201400Z 2015/2115 07008KT 9999 FEW045 TX24/2115Z TN11/2107Z =
TAF LEAM 201400Z 2015/2115 08015KT 9999 FEW035 TX20/2114Z TN09/2107Z BECMG 2019/2022 01006KT BECMG 2109/2111 07020KT =
TAF LEBA 201400Z 2015/2024 VRB03KT CAVOK =
TAF LEJR 201100Z 2012/2112 15010KT 9999 FEW045 TX21/2015Z TN07/2106Z PROB30 TEMPO 2012/2016 VRB02KT BECMG 2020/2023 04005KT =
TAF GEML 201400Z 2015/2115 09007KT 9999 SCT015 BKN020 TX17/2015Z TN15/2106Z TEMPO 2017/2115 SCT010 BKN014 =
TAF LXGB 201340Z 2015/2023 09016G26KT 9999 FEW018 BKN025 520002 TEMPO 2015/2023 SCT018 BKN025 PROB30 TEMPO 2015/2023 SCT012 BECMG 2016/2019 09014KT 50//// =

Recuerde que, aunque regularmente actualizada, la información meteorológica aquí presentada no debe ser utilizada para la planificación de vuelos. Si lo desea, puede consultar la información meteorológica adecuada, tanto de aeródromos como en ruta, por las vías oficialmente establecidas en la legislación -> AQUí

Utilizamos "cookies" propias y de terceros para analizar nuestros servicios, medir las audiencias, personalizar el contenido que ofrecemos y mostrar información adaptada a sus intereses mediante la obtención de los datos necesarios para perfilar sus hábitos de navegación e inferir grupos de interés, siempre de modo anónimo. Si continúa utilizando el sitio web AEROCLUBMALAGA.COM, significa que acepta sus términos y condiciones y el uso de "cookies" al utilizar el sitio web y nuestros servicios. Asimismo, podemos utilizar fuentes de datos externas para elaborar estos grupos de interés, así compartir los análisis de navegación y los grupos de interés inferidos con terceros con el objetivo de personalizar los contenidos. Para obtener más información sobre las cookies que utilizamos y cómo eliminarlas, consulte nuestra política de privacidad.

Acepto las cookies de esta página web.
EU Cookie Directive plugin by www.channeldigital.co.uk